Ouzinkie, Alaska
Current Conditions -  °F | °C
As of 6:53 AM on Wednesday 22 Oct 2014 (Local Time) from PADQ Reporting Station
Clear Clear  
Wind Chill: 36°   Ceiling: Unl
Heat Index: 42°   Visibility: 10mi
Dew Point: 32°   Wind: 12mph
Humidity: 67%   Direction: 290°WNW
Pressure: 29.2"   Gusts: NA
Location:  57.92°N, 152.5°W
Report Text: PADQ 221453Z 29010KT 10SM CLR 06/00 A2920 RMK AO2 SLP888 T00560000 53006
Loading
Personal Weather Stations






























Interactive Weather Map
Tropical Storm Tracking
New forecast layout! Learn more

10-Day Weather Forecast

Advertisements
Track Severe Weather on mobile